createdAt,value
2018-12-06T00:00:23.201Z,7.69
2018-12-06T00:01:23.230Z,7.74
2018-12-06T00:02:23.298Z,7.66
2018-12-06T00:03:23.343Z,7.63
2018-12-06T00:04:23.362Z,7.60
2018-12-06T00:05:23.406Z,7.59
2018-12-06T00:06:23.459Z,7.49
2018-12-06T00:07:23.494Z,7.52
2018-12-06T00:08:23.565Z,7.47
2018-12-06T00:09:23.587Z,7.45
2018-12-06T00:10:23.626Z,7.47
2018-12-06T00:11:23.678Z,7.45
2018-12-06T00:12:23.724Z,7.47
2018-12-06T00:13:23.781Z,7.58
2018-12-06T00:14:23.803Z,7.60
2018-12-06T00:15:23.857Z,7.56
2018-12-06T00:16:23.888Z,7.60
2018-12-06T00:17:23.934Z,7.58
2018-12-06T00:18:23.997Z,7.63
2018-12-06T00:19:24.052Z,7.66
2018-12-06T00:20:24.065Z,7.60
2018-12-06T00:21:24.113Z,7.66
2018-12-06T00:22:24.183Z,7.75
2018-12-06T00:23:24.199Z,7.75
2018-12-06T00:24:24.288Z,7.78
2018-12-06T00:25:24.286Z,7.75
2018-12-06T00:26:24.353Z,7.67
2018-12-06T00:27:24.373Z,7.72
2018-12-06T00:28:24.445Z,7.63
2018-12-06T00:29:24.460Z,7.63
2018-12-06T00:30:24.532Z,7.75
2018-12-06T00:31:24.630Z,7.69
2018-12-06T00:32:24.596Z,7.66
2018-12-06T00:33:24.662Z,7.72
2018-12-06T00:34:24.703Z,7.62
2018-12-06T00:35:24.727Z,7.62
2018-12-06T00:36:24.777Z,7.69
2018-12-06T00:37:24.813Z,7.59
2018-12-06T00:38:24.923Z,7.62
2018-12-06T00:39:24.900Z,7.55
2018-12-06T00:40:24.953Z,7.58
2018-12-06T00:41:25.011Z,7.62
2018-12-06T00:42:25.035Z,7.56
2018-12-06T00:43:25.096Z,7.58
2018-12-06T00:44:25.124Z,7.67
2018-12-06T00:45:25.165Z,7.74
2018-12-06T00:46:25.210Z,7.74
2018-12-06T00:47:25.255Z,7.63
2018-12-06T00:48:25.317Z,7.78
2018-12-06T00:49:25.344Z,7.72
2018-12-06T00:50:25.389Z,7.74
2018-12-06T00:51:25.431Z,7.75
2018-12-06T00:52:25.474Z,7.75
2018-12-06T00:53:25.539Z,7.59
2018-12-06T00:54:25.666Z,7.59
2018-12-06T00:55:25.606Z,7.67
2018-12-06T00:56:25.657Z,7.55
2018-12-06T00:57:25.702Z,7.71
2018-12-06T00:58:25.762Z,7.62
2018-12-06T00:59:25.791Z,7.55
2018-12-06T01:00:25.833Z,7.55
2018-12-06T01:01:25.877Z,7.58
2018-12-06T01:02:25.919Z,7.59
2018-12-06T01:03:25.984Z,7.55
2018-12-06T01:04:26.009Z,7.53
2018-12-06T01:05:26.048Z,7.62
2018-12-06T01:06:26.095Z,7.69
2018-12-06T01:07:26.137Z,7.63
2018-12-06T01:08:26.240Z,7.53
2018-12-06T01:09:26.225Z,7.59
2018-12-06T01:10:26.271Z,7.60
2018-12-06T01:11:26.333Z,7.60
2018-12-06T01:12:26.356Z,7.63
2018-12-06T01:13:26.403Z,7.60
2018-12-06T01:14:26.454Z,7.60
2018-12-06T01:15:26.514Z,7.63
2018-12-06T01:16:26.532Z,7.55
2018-12-06T01:17:26.581Z,7.60
2018-12-06T01:18:26.629Z,7.55
2018-12-06T01:19:26.690Z,7.60
2018-12-06T01:20:26.740Z,7.72
2018-12-06T01:21:26.776Z,7.59
2018-12-06T01:22:26.803Z,7.77
2018-12-06T01:23:26.853Z,7.79
2018-12-06T01:24:26.887Z,7.79
2018-12-06T01:25:26.931Z,7.60
2018-12-06T01:26:27.011Z,7.69
2018-12-06T01:27:27.017Z,7.63
2018-12-06T01:28:27.062Z,7.69
2018-12-06T01:29:27.118Z,7.66
2018-12-06T01:30:27.153Z,7.69
2018-12-06T01:31:27.219Z,7.79
2018-12-06T01:32:27.238Z,7.67
2018-12-06T01:33:27.360Z,7.69
2018-12-06T01:34:27.335Z,7.74
2018-12-06T01:35:27.385Z,7.74
2018-12-06T01:36:27.415Z,7.69
2018-12-06T01:37:27.481Z,7.72
2018-12-06T01:38:27.504Z,7.79
2018-12-06T01:39:27.547Z,7.81
2018-12-06T01:40:27.665Z,7.87
2018-12-06T01:41:27.671Z,7.79
2018-12-06T01:42:27.680Z,7.77
2018-12-06T01:43:27.733Z,7.71
2018-12-06T01:44:27.770Z,7.69
2018-12-06T01:45:27.811Z,7.71
2018-12-06T01:46:27.876Z,7.79
2018-12-06T01:47:27.905Z,7.71
2018-12-06T01:48:27.951Z,7.66
2018-12-06T01:49:28.006Z,7.75
2018-12-06T01:50:28.034Z,7.75
2018-12-06T01:51:28.082Z,7.75
2018-12-06T01:52:28.124Z,7.74
2018-12-06T01:53:28.163Z,7.77
2018-12-06T01:54:28.253Z,7.69
2018-12-06T01:55:28.251Z,7.75
2018-12-06T01:56:28.296Z,7.82
2018-12-06T01:57:28.367Z,7.77
2018-12-06T01:58:28.396Z,7.74
2018-12-06T01:59:28.459Z,7.71
2018-12-06T02:00:28.546Z,7.69
2018-12-06T02:01:28.524Z,7.62
2018-12-06T02:02:28.581Z,7.62
2018-12-06T02:03:28.606Z,7.63
2018-12-06T02:04:28.651Z,7.63
2018-12-06T02:05:28.721Z,7.59
2018-12-06T02:06:28.743Z,7.56
2018-12-06T02:07:28.783Z,7.66
2018-12-06T02:08:28.849Z,7.52
2018-12-06T02:09:28.866Z,7.56
2018-12-06T02:10:28.970Z,7.66
2018-12-06T02:11:28.975Z,7.55
2018-12-06T02:12:28.998Z,7.63
2018-12-06T02:13:29.041Z,7.66
2018-12-06T02:14:29.089Z,7.60
2018-12-06T02:15:29.156Z,7.63
2018-12-06T02:16:29.179Z,7.67
2018-12-06T02:17:29.323Z,7.58
2018-12-06T02:18:29.283Z,7.63
2018-12-06T02:19:29.309Z,7.55
2018-12-06T02:20:29.352Z,7.66
2018-12-06T02:21:29.396Z,7.58
2018-12-06T02:22:29.528Z,7.63
2018-12-06T02:23:29.502Z,7.60
2018-12-06T02:24:29.526Z,7.58
2018-12-06T02:25:29.577Z,7.60
2018-12-06T02:26:29.614Z,7.60
2018-12-06T02:27:29.668Z,7.62
2018-12-06T02:28:29.721Z,7.60
2018-12-06T02:29:29.746Z,7.72
2018-12-06T02:30:29.805Z,7.66
2018-12-06T02:31:29.855Z,7.63
2018-12-06T02:32:29.880Z,7.60
2018-12-06T02:33:29.944Z,7.66
2018-12-06T02:34:29.989Z,7.71
2018-12-06T02:35:30.016Z,7.74
2018-12-06T02:36:30.053Z,7.72
2018-12-06T02:37:30.098Z,7.71
2018-12-06T02:38:30.149Z,7.81
2018-12-06T02:39:30.201Z,7.84
2018-12-06T02:40:30.249Z,7.77
2018-12-06T02:41:30.275Z,7.84
2018-12-06T02:42:30.341Z,7.82
2018-12-06T02:43:30.364Z,7.79
2018-12-06T02:44:30.405Z,7.78
2018-12-06T02:45:30.473Z,7.74
2018-12-06T02:46:30.498Z,7.71
2018-12-06T02:47:30.554Z,7.67
2018-12-06T02:48:30.583Z,7.63
2018-12-06T02:49:30.629Z,7.78
2018-12-06T02:50:30.694Z,7.78
2018-12-06T02:51:30.746Z,7.74
2018-12-06T02:52:30.759Z,7.66
2018-12-06T02:53:30.815Z,7.74
2018-12-06T02:54:30.846Z,7.78
2018-12-06T02:55:30.890Z,7.71
2018-12-06T02:56:31.014Z,7.71
2018-12-06T02:57:30.980Z,7.62
2018-12-06T02:58:31.024Z,7.78
2018-12-06T02:59:31.078Z,7.63
2018-12-06T03:00:31.112Z,7.78
2018-12-06T03:01:31.176Z,7.75
2018-12-06T03:02:31.225Z,7.77
2018-12-06T03:03:31.261Z,7.63
2018-12-06T03:04:31.289Z,7.75
2018-12-06T03:05:31.331Z,7.78
2018-12-06T03:06:31.414Z,7.71
2018-12-06T03:07:31.442Z,7.74
2018-12-06T03:08:31.471Z,7.71
2018-12-06T03:09:31.513Z,7.81
2018-12-06T03:10:31.561Z,7.84
2018-12-06T03:11:31.623Z,7.72
2018-12-06T03:12:31.644Z,7.84
2018-12-06T03:13:31.706Z,7.75
2018-12-06T03:14:31.735Z,7.81
2018-12-06T03:15:31.771Z,7.87
2018-12-06T03:16:31.815Z,7.85
2018-12-06T03:17:31.864Z,7.84
2018-12-06T03:18:31.927Z,7.92
2018-12-06T03:19:31.985Z,7.84
2018-12-06T03:20:32.017Z,7.96
2018-12-06T03:21:32.045Z,7.90
2018-12-06T03:22:32.087Z,7.89
2018-12-06T03:23:32.129Z,7.99
2018-12-06T03:24:32.177Z,7.87
2018-12-06T03:25:32.234Z,7.96
2018-12-06T03:26:32.328Z,7.97
2018-12-06T03:27:32.304Z,7.96
2018-12-06T03:28:32.347Z,7.94
2018-12-06T03:29:32.390Z,7.97
2018-12-06T03:30:32.458Z,7.94
2018-12-06T03:31:32.480Z,7.93
2018-12-06T03:32:32.529Z,7.92
2018-12-06T03:33:32.670Z,8.00
2018-12-06T03:34:32.611Z,8.08
2018-12-06T03:35:32.676Z,8.11
2018-12-06T03:36:32.695Z,8.10
2018-12-06T03:37:32.739Z,8.04
2018-12-06T03:38:32.796Z,8.11
2018-12-06T03:39:32.829Z,7.99
2018-12-06T03:40:32.923Z,7.93
2018-12-06T03:41:32.956Z,7.90
2018-12-06T03:42:32.976Z,7.97
2018-12-06T03:43:33.008Z,7.96
2018-12-06T03:44:33.053Z,7.96
2018-12-06T03:45:33.097Z,7.94
2018-12-06T03:46:33.169Z,7.96
2018-12-06T03:47:33.185Z,7.93
2018-12-06T03:48:33.228Z,7.99
2018-12-06T03:49:33.280Z,7.99
2018-12-06T03:50:33.318Z,7.93
2018-12-06T03:51:33.382Z,7.87
2018-12-06T03:52:33.433Z,7.89
2018-12-06T03:53:33.449Z,7.93
2018-12-06T03:54:33.499Z,7.90
2018-12-06T03:55:33.541Z,7.87
2018-12-06T03:56:33.585Z,7.90
2018-12-06T03:57:33.684Z,7.99
2018-12-06T03:58:33.704Z,7.97
2018-12-06T03:59:33.722Z,7.87
2018-12-06T04:00:33.761Z,7.90
2018-12-06T04:01:33.804Z,7.89
2018-12-06T04:02:33.847Z,7.84
2018-12-06T04:03:33.911Z,7.89
2018-12-06T04:04:33.960Z,7.90
2018-12-06T04:05:33.983Z,7.84
2018-12-06T04:06:34.023Z,7.87
2018-12-06T04:07:34.069Z,7.89
2018-12-06T04:08:34.123Z,7.97
2018-12-06T04:09:34.178Z,7.92
2018-12-06T04:10:34.211Z,7.93
2018-12-06T04:11:34.242Z,7.89
2018-12-06T04:12:34.289Z,7.89
2018-12-06T04:13:34.338Z,7.90
2018-12-06T04:14:34.406Z,7.99
2018-12-06T04:15:34.421Z,7.92
2018-12-06T04:16:34.465Z,7.93
2018-12-06T04:17:34.533Z,7.94
2018-12-06T04:18:34.556Z,7.99
2018-12-06T04:19:34.607Z,7.94
2018-12-06T04:20:34.672Z,7.93
2018-12-06T04:21:34.691Z,7.90
2018-12-06T04:22:34.740Z,7.90
2018-12-06T04:23:34.780Z,7.92
2018-12-06T04:24:34.821Z,7.92
2018-12-06T04:25:34.892Z,7.92
2018-12-06T04:26:34.911Z,7.94
2018-12-06T04:27:34.959Z,7.93
2018-12-06T04:28:35.010Z,7.94
2018-12-06T04:29:35.050Z,7.93
2018-12-06T04:30:35.110Z,7.97
2018-12-06T04:31:35.133Z,7.94
2018-12-06T04:32:35.184Z,7.99
2018-12-06T04:33:35.221Z,7.94
2018-12-06T04:34:35.292Z,7.96
2018-12-06T04:35:35.312Z,7.97
2018-12-06T04:36:35.356Z,7.96
2018-12-06T04:37:35.417Z,7.96
2018-12-06T04:38:35.446Z,7.94
2018-12-06T04:39:35.487Z,8.00
2018-12-06T04:40:35.555Z,7.90
2018-12-06T04:41:35.601Z,7.89
2018-12-06T04:42:35.650Z,7.92
2018-12-06T04:43:35.662Z,7.94
2018-12-06T04:44:35.717Z,8.00
2018-12-06T04:45:35.761Z,7.99
2018-12-06T04:46:35.798Z,8.00
2018-12-06T04:47:35.864Z,7.97
2018-12-06T04:48:35.888Z,8.11
2018-12-06T04:49:36.037Z,8.11
2018-12-06T04:50:35.983Z,8.08
2018-12-06T04:51:36.019Z,8.10
2018-12-06T04:52:36.103Z,7.99
2018-12-06T04:53:36.115Z,8.07
2018-12-06T04:54:36.174Z,8.04
2018-12-06T04:55:36.203Z,8.11
2018-12-06T04:56:36.243Z,8.10
2018-12-06T04:57:36.308Z,8.10
2018-12-06T04:58:36.342Z,8.08
2018-12-06T04:59:36.386Z,8.07
2018-12-06T05:00:36.436Z,8.11
2018-12-06T05:01:36.472Z,8.14
2018-12-06T05:02:36.534Z,8.11
2018-12-06T05:03:36.573Z,8.11
2018-12-06T05:04:36.596Z,8.10
2018-12-06T05:05:36.646Z,8.20
2018-12-06T05:06:36.688Z,8.25
2018-12-06T05:07:36.767Z,8.28
2018-12-06T05:08:36.792Z,8.25
2018-12-06T05:09:36.831Z,8.25
2018-12-06T05:10:36.870Z,8.26
2018-12-06T05:11:36.908Z,8.28
2018-12-06T05:12:37.020Z,8.18
2018-12-06T05:13:37.001Z,8.25
2018-12-06T05:14:37.077Z,8.10
2018-12-06T05:15:37.089Z,8.10
2018-12-06T05:16:37.134Z,8.12
2018-12-06T05:17:37.177Z,8.15
2018-12-06T05:18:37.231Z,8.07
2018-12-06T05:19:37.430Z,8.11
2018-12-06T05:20:37.325Z,8.11
2018-12-06T05:21:37.356Z,8.17
2018-12-06T05:22:37.414Z,8.11
2018-12-06T05:23:37.449Z,8.12
2018-12-06T05:24:37.519Z,8.08
2018-12-06T05:25:37.538Z,8.14
2018-12-06T05:26:37.581Z,8.11
2018-12-06T05:27:37.624Z,8.14
2018-12-06T05:28:37.676Z,8.11
2018-12-06T05:29:37.736Z,8.17
2018-12-06T05:30:37.762Z,8.12
2018-12-06T05:31:37.822Z,8.15
2018-12-06T05:32:37.846Z,8.11
2018-12-06T05:33:37.894Z,8.10
2018-12-06T05:34:37.961Z,8.12
2018-12-06T05:35:38.024Z,8.14
2018-12-06T05:36:38.043Z,8.14
2018-12-06T05:37:38.094Z,8.12
2018-12-06T05:38:38.124Z,8.17
2018-12-06T05:39:38.182Z,8.11
2018-12-06T05:40:38.209Z,8.15
2018-12-06T05:41:38.253Z,8.14
2018-12-06T05:42:38.297Z,8.12
2018-12-06T05:43:38.365Z,8.10
2018-12-06T05:44:38.385Z,8.11
2018-12-06T05:45:38.453Z,8.14
2018-12-06T05:46:38.510Z,8.11
2018-12-06T05:47:38.518Z,8.21
2018-12-06T05:48:38.581Z,8.10
2018-12-06T05:49:38.611Z,8.18
2018-12-06T05:50:38.672Z,8.17
2018-12-06T05:51:38.719Z,8.17
2018-12-06T05:52:38.743Z,8.17
2018-12-06T05:53:38.786Z,8.14
2018-12-06T05:54:38.851Z,8.10
2018-12-06T05:55:38.879Z,8.17
2018-12-06T05:56:38.998Z,8.11
2018-12-06T05:57:38.979Z,8.20
2018-12-06T05:58:39.009Z,8.10
2018-12-06T05:59:39.057Z,8.20
2018-12-06T06:00:39.100Z,8.25
2018-12-06T06:01:39.188Z,8.22
2018-12-06T06:02:39.275Z,8.22
2018-12-06T06:03:39.237Z,8.28
2018-12-06T06:04:39.276Z,8.26
2018-12-06T06:05:39.358Z,8.18
2018-12-06T06:06:39.392Z,8.25
2018-12-06T06:07:39.429Z,8.25
2018-12-06T06:08:39.450Z,8.25
2018-12-06T06:09:39.493Z,8.20
2018-12-06T06:10:39.538Z,8.21
2018-12-06T06:11:39.593Z,8.20
2018-12-06T06:12:39.659Z,8.32
2018-12-06T06:13:39.679Z,8.22
2018-12-06T06:14:39.734Z,8.22
2018-12-06T06:15:39.761Z,8.17
2018-12-06T06:16:39.828Z,8.25
2018-12-06T06:17:39.872Z,8.22
2018-12-06T06:18:39.901Z,8.26
2018-12-06T06:19:39.942Z,8.25
2018-12-06T06:20:39.988Z,8.20
2018-12-06T06:21:40.080Z,8.28
2018-12-06T06:22:40.081Z,8.28
2018-12-06T06:23:40.118Z,8.20
2018-12-06T06:24:40.165Z,8.35
2018-12-06T06:25:40.212Z,8.30
2018-12-06T06:26:40.274Z,8.36
2018-12-06T06:27:40.293Z,8.35
2018-12-06T06:28:40.462Z,8.39
2018-12-06T06:29:40.382Z,8.33
2018-12-06T06:30:40.436Z,8.42
2018-12-06T06:31:40.476Z,8.35
2018-12-06T06:32:40.539Z,8.32
2018-12-06T06:33:40.584Z,8.35
2018-12-06T06:34:40.630Z,8.40
2018-12-06T06:35:40.751Z,8.54
2018-12-06T06:36:40.697Z,8.48
2018-12-06T06:37:40.740Z,8.51
2018-12-06T06:38:40.786Z,8.54
2018-12-06T06:39:40.854Z,8.62
2018-12-06T06:40:40.882Z,8.58
2018-12-06T06:41:40.925Z,8.66
2018-12-06T06:42:41.015Z,8.65
2018-12-06T06:43:41.007Z,8.68
2018-12-06T06:44:41.093Z,8.73
2018-12-06T06:45:41.097Z,8.81
2018-12-06T06:46:41.139Z,8.79
2018-12-06T06:47:41.187Z,8.79
2018-12-06T06:48:41.247Z,8.87
2018-12-06T06:49:41.403Z,8.91
2018-12-06T06:50:41.321Z,8.86
2018-12-06T06:51:41.391Z,8.93
2018-12-06T06:52:41.409Z,8.86
2018-12-06T06:53:41.461Z,8.97
2018-12-06T06:54:41.512Z,8.91
2018-12-06T06:55:41.565Z,8.91
2018-12-06T06:56:41.620Z,8.93
2018-12-06T06:57:41.638Z,8.93
2018-12-06T06:58:41.679Z,8.94
2018-12-06T06:59:41.730Z,8.88
2018-12-06T07:00:41.767Z,8.97
2018-12-06T07:01:41.836Z,8.99
2018-12-06T07:02:41.857Z,9.06
2018-12-06T07:03:41.909Z,9.02
2018-12-06T07:04:41.953Z,9.09
2018-12-06T07:05:42.007Z,9.02
2018-12-06T07:06:42.060Z,9.01
2018-12-06T07:07:42.102Z,8.96
2018-12-06T07:08:42.128Z,8.96
2018-12-06T07:09:42.173Z,8.93
2018-12-06T07:10:42.230Z,8.96
2018-12-06T07:11:42.282Z,8.91
2018-12-06T07:12:42.429Z,8.91
2018-12-06T07:13:42.359Z,8.96
2018-12-06T07:14:42.404Z,8.90
2018-12-06T07:15:42.457Z,8.97
2018-12-06T07:16:42.490Z,8.91
2018-12-06T07:17:42.557Z,8.90
2018-12-06T07:18:42.585Z,8.93
2018-12-06T07:19:42.623Z,8.88
2018-12-06T07:20:42.679Z,9.01
2018-12-06T07:21:42.718Z,9.01
2018-12-06T07:22:42.790Z,9.04
2018-12-06T07:23:42.807Z,9.02
2018-12-06T07:24:42.851Z,9.02
2018-12-06T07:25:46.274Z,9.02
2018-12-06T07:26:43.008Z,9.02
2018-12-06T07:27:43.015Z,9.02
2018-12-06T07:28:43.031Z,9.02
2018-12-06T07:29:43.076Z,9.02
2018-12-06T07:30:43.126Z,9.01
2018-12-06T07:31:43.164Z,9.04
2018-12-06T07:32:43.240Z,9.09
2018-12-06T07:33:43.286Z,9.16
2018-12-06T07:34:43.328Z,9.16
2018-12-06T07:35:43.351Z,9.12
2018-12-06T07:36:43.400Z,9.16
2018-12-06T07:37:43.441Z,9.12
2018-12-06T07:38:43.504Z,9.15
2018-12-06T07:39:43.524Z,9.10
2018-12-06T07:40:43.588Z,9.16
2018-12-06T07:41:43.622Z,9.20
2018-12-06T07:42:43.673Z,9.18
2018-12-06T07:43:43.728Z,9.16
2018-12-06T07:44:43.764Z,9.15
2018-12-06T07:45:43.805Z,9.12
2018-12-06T07:46:43.888Z,9.06
2018-12-06T07:47:43.895Z,8.99
2018-12-06T07:48:43.940Z,9.04
2018-12-06T07:49:44.011Z,9.02
2018-12-06T07:50:44.036Z,9.09
2018-12-06T07:51:44.086Z,9.02
2018-12-06T07:52:44.128Z,9.04
2018-12-06T07:53:44.176Z,9.01
2018-12-06T07:54:44.228Z,8.94
2018-12-06T07:55:44.251Z,8.97
2018-12-06T07:56:44.323Z,8.99
2018-12-06T07:57:44.344Z,9.01
2018-12-06T07:58:44.404Z,9.01
2018-12-06T07:59:44.435Z,9.05
2018-12-06T08:00:44.479Z,9.16
2018-12-06T08:01:44.565Z,9.13
2018-12-06T08:02:44.583Z,9.13
2018-12-06T08:03:44.618Z,9.10
2018-12-06T08:04:44.669Z,9.12
2018-12-06T08:05:44.707Z,9.20
2018-12-06T08:06:44.778Z,9.18
2018-12-06T08:07:44.809Z,9.23
2018-12-06T08:08:44.864Z,9.23
2018-12-06T08:09:44.889Z,9.23
2018-12-06T08:10:44.932Z,9.21
2018-12-06T08:11:45.005Z,9.21
2018-12-06T08:12:45.025Z,9.18
2018-12-06T08:13:45.089Z,9.21
2018-12-06T08:14:45.116Z,9.21
2018-12-06T08:15:45.160Z,9.34
2018-12-06T08:16:45.215Z,9.27
2018-12-06T08:17:45.263Z,9.31
2018-12-06T08:18:45.316Z,9.38
2018-12-06T08:19:45.344Z,9.34
2018-12-06T08:20:45.385Z,9.39
2018-12-06T08:21:45.467Z,9.34
2018-12-06T08:22:45.495Z,9.40
2018-12-06T08:23:45.546Z,9.31
2018-12-06T08:24:45.569Z,9.30
2018-12-06T08:25:45.614Z,9.42
2018-12-06T08:26:45.661Z,9.40
2018-12-06T08:27:45.704Z,9.43
2018-12-06T08:28:45.852Z,9.46
2018-12-06T08:29:45.796Z,9.38
2018-12-06T08:30:45.861Z,9.42
2018-12-06T08:31:45.896Z,9.45
2018-12-06T08:32:45.937Z,9.48
2018-12-06T08:33:45.980Z,9.46
2018-12-06T08:34:46.053Z,9.45
2018-12-06T08:35:46.155Z,9.48
2018-12-06T08:36:46.125Z,9.48
2018-12-06T08:37:46.166Z,9.46
2018-12-06T08:38:46.223Z,9.45
2018-12-06T08:39:46.284Z,9.53
2018-12-06T08:40:46.324Z,9.49
2018-12-06T08:41:46.354Z,9.50
2018-12-06T08:42:46.440Z,9.48
2018-12-06T08:43:46.435Z,9.50
2018-12-06T08:44:46.479Z,9.56
2018-12-06T08:45:46.550Z,9.52
2018-12-06T08:46:46.577Z,9.56
2018-12-06T08:47:46.615Z,9.58
2018-12-06T08:48:46.667Z,9.52
2018-12-06T08:49:46.814Z,9.56
2018-12-06T08:50:46.775Z,9.60
2018-12-06T08:51:46.820Z,9.57
2018-12-06T08:52:46.857Z,9.61
2018-12-06T08:53:46.891Z,9.64
2018-12-06T08:54:46.948Z,9.67
2018-12-06T08:55:46.986Z,9.63
2018-12-06T08:56:47.049Z,9.70
2018-12-06T08:57:47.074Z,9.63
2018-12-06T08:58:47.176Z,9.58
2018-12-06T08:59:47.178Z,9.60
2018-12-06T09:00:47.215Z,9.64
2018-12-06T09:01:47.276Z,9.68
2018-12-06T09:02:47.338Z,9.70
2018-12-06T09:03:47.354Z,9.68
2018-12-06T09:04:47.403Z,9.79
2018-12-06T09:05:47.439Z,9.81
2018-12-06T09:06:47.496Z,9.88
2018-12-06T09:07:47.559Z,9.86
2018-12-06T09:08:47.583Z,9.83
2018-12-06T09:09:47.626Z,9.99
2018-12-06T09:10:51.560Z,9.94
2018-12-06T09:11:47.718Z,9.99
2018-12-06T09:12:47.792Z,9.99
2018-12-06T09:13:47.819Z,9.93
2018-12-06T09:14:47.864Z,10.07
2018-12-06T09:15:47.898Z,10.07
2018-12-06T09:16:47.943Z,10.04
2018-12-06T09:17:48.011Z,10.07
2018-12-06T09:18:48.051Z,10.00
2018-12-06T09:19:48.174Z,10.07
2018-12-06T09:20:48.129Z,10.10
2018-12-06T09:21:48.178Z,10.10
2018-12-06T09:22:48.222Z,10.10
2018-12-06T09:23:48.283Z,10.18
2018-12-06T09:24:48.319Z,10.12
2018-12-06T09:25:48.370Z,10.07
2018-12-06T09:26:48.519Z,10.01
2018-12-06T09:27:48.453Z,10.06
2018-12-06T09:28:48.517Z,9.97
2018-12-06T09:29:48.561Z,9.97
2018-12-06T09:30:48.599Z,10.01
2018-12-06T09:31:48.646Z,9.97
2018-12-06T09:32:48.684Z,9.96
2018-12-06T09:33:48.805Z,9.91
2018-12-06T09:34:48.778Z,9.96
2018-12-06T09:35:48.822Z,9.94
2018-12-06T09:36:48.868Z,9.94
2018-12-06T09:37:48.945Z,9.86
2018-12-06T09:38:48.987Z,9.83
2018-12-06T09:39:49.023Z,9.91
2018-12-06T09:40:49.052Z,9.91
2018-12-06T09:41:49.098Z,9.94
2018-12-06T09:42:49.172Z,9.91
2018-12-06T09:43:49.193Z,9.88
2018-12-06T09:44:49.237Z,9.93
2018-12-06T09:45:49.319Z,9.91
2018-12-06T09:46:49.333Z,10.10
2018-12-06T09:47:49.378Z,10.00
2018-12-06T09:48:49.423Z,10.09
2018-12-06T09:49:49.469Z,10.17
2018-12-06T09:50:49.555Z,10.06
2018-12-06T09:51:49.592Z,10.17
2018-12-06T09:52:49.615Z,10.18
2018-12-06T09:53:49.659Z,10.14
2018-12-06T09:54:49.703Z,10.14
2018-12-06T09:55:49.754Z,10.15
2018-12-06T09:56:49.843Z,10.17
2018-12-06T09:57:50.647Z,10.21
2018-12-06T09:58:49.882Z,10.25
2018-12-06T09:59:49.931Z,10.24
2018-12-06T10:00:49.973Z,10.32
2018-12-06T10:01:50.043Z,10.40
2018-12-06T10:02:50.065Z,10.51
2018-12-06T10:03:50.175Z,10.43
2018-12-06T10:04:50.159Z,10.55
2018-12-06T10:05:50.233Z,10.56
2018-12-06T10:06:50.282Z,10.62
2018-12-06T10:07:50.295Z,10.56
2018-12-06T10:08:50.344Z,10.58
2018-12-06T10:09:50.398Z,10.58
2018-12-06T10:10:50.604Z,10.62
2018-12-06T10:11:50.489Z,10.60
2018-12-06T10:12:50.539Z,10.59
2018-12-06T10:13:50.574Z,10.59
2018-12-06T10:14:50.618Z,10.63
2018-12-06T10:15:50.691Z,10.58
2018-12-06T10:16:50.799Z,10.63
2018-12-06T10:17:50.769Z,10.52
2018-12-06T10:18:50.823Z,10.55
2018-12-06T10:19:50.848Z,10.55
2018-12-06T10:20:50.903Z,10.62
2018-12-06T10:21:50.971Z,10.58
2018-12-06T10:22:51.002Z,10.62
2018-12-06T10:23:51.042Z,10.62
2018-12-06T10:24:51.131Z,10.58
2018-12-06T10:25:51.138Z,10.59
2018-12-06T10:26:51.190Z,10.62
2018-12-06T10:27:51.222Z,10.65
2018-12-06T10:28:51.298Z,10.66
2018-12-06T10:29:51.332Z,10.58
2018-12-06T10:30:51.370Z,10.60
2018-12-06T10:31:51.413Z,10.63
2018-12-06T10:32:51.452Z,10.60
2018-12-06T10:33:51.519Z,10.59
2018-12-06T10:34:53.504Z,10.58
2018-12-06T10:35:51.612Z,10.53
2018-12-06T10:36:51.642Z,10.60
2018-12-06T10:37:51.685Z,10.63
2018-12-06T10:38:51.747Z,10.56
2018-12-06T10:39:51.807Z,10.58
2018-12-06T10:40:51.832Z,10.59
2018-12-06T10:41:51.891Z,10.63
2018-12-06T10:42:51.918Z,10.65
2018-12-06T10:43:51.965Z,10.60
2018-12-06T10:44:52.003Z,10.55
2018-12-06T10:45:52.055Z,10.53
2018-12-06T10:46:52.126Z,10.46
2018-12-06T10:47:52.252Z,10.58
2018-12-06T10:48:52.208Z,10.55
2018-12-06T10:49:52.244Z,10.46
2018-12-06T10:50:52.318Z,10.51
2018-12-06T10:51:52.351Z,10.52
2018-12-06T10:52:52.389Z,10.53
2018-12-06T10:53:52.427Z,10.47
2018-12-06T10:54:52.628Z,10.62
2018-12-06T10:55:52.539Z,10.58
2018-12-06T10:56:52.568Z,10.59
2018-12-06T10:57:52.651Z,10.59
2018-12-06T10:58:52.662Z,10.63
2018-12-06T10:59:52.709Z,10.60
2018-12-06T11:00:57.197Z,10.73
2018-12-06T11:01:52.798Z,10.74
2018-12-06T11:02:52.852Z,10.78
2018-12-06T11:03:52.890Z,10.78
2018-12-06T11:04:52.940Z,10.73
2018-12-06T11:05:53.013Z,10.59
2018-12-06T11:06:53.065Z,10.66
2018-12-06T11:07:53.085Z,10.66
2018-12-06T11:08:53.140Z,10.59
2018-12-06T11:09:53.170Z,10.60
2018-12-06T11:10:53.227Z,10.56
2018-12-06T11:11:53.267Z,10.55
2018-12-06T11:12:53.310Z,10.53
2018-12-06T11:13:53.389Z,10.63
2018-12-06T11:14:53.402Z,10.52
2018-12-06T11:15:53.455Z,10.51
2018-12-06T11:16:53.518Z,10.51
2018-12-06T11:17:53.545Z,10.52
2018-12-06T11:18:53.624Z,10.46
2018-12-06T11:19:53.633Z,10.52
2018-12-06T11:20:53.684Z,10.52
2018-12-06T11:21:53.725Z,10.60
2018-12-06T11:22:53.799Z,10.59
2018-12-06T11:23:53.846Z,10.62
2018-12-06T11:24:53.866Z,10.58
2018-12-06T11:25:53.912Z,10.60
2018-12-06T11:26:53.994Z,10.62
2018-12-06T11:27:54.006Z,10.58
2018-12-06T11:28:54.072Z,10.55
2018-12-06T11:29:54.103Z,10.65
2018-12-06T11:30:54.155Z,10.60
2018-12-06T11:31:54.223Z,10.58
2018-12-06T11:32:54.241Z,10.47
2018-12-06T11:33:54.323Z,10.47
2018-12-06T11:34:54.331Z,10.44
2018-12-06T11:35:54.377Z,10.58
2018-12-06T11:36:54.435Z,10.51
2018-12-06T11:37:54.479Z,10.53
2018-12-06T11:38:54.558Z,10.47
2018-12-06T11:39:54.572Z,10.58
2018-12-06T11:40:54.621Z,10.56
2018-12-06T11:41:54.710Z,10.53
2018-12-06T11:42:54.708Z,10.56
2018-12-06T11:43:54.753Z,10.60
2018-12-06T11:44:54.806Z,10.60
2018-12-06T11:45:55.018Z,10.62
2018-12-06T11:46:54.915Z,10.58
2018-12-06T11:47:55.980Z,10.63
2018-12-06T11:48:54.981Z,10.60
2018-12-06T11:49:55.027Z,10.63
2018-12-06T11:50:55.079Z,10.63
2018-12-06T11:51:55.146Z,10.70
2018-12-06T11:52:55.163Z,10.65
2018-12-06T11:53:55.218Z,10.78
2018-12-06T11:54:55.262Z,10.73
2018-12-06T11:55:55.330Z,10.74
2018-12-06T11:56:55.375Z,10.78
2018-12-06T11:57:55.406Z,10.89
2018-12-06T11:58:55.446Z,10.91
2018-12-06T11:59:55.495Z,10.88
2018-12-06T12:00:55.574Z,10.99
2018-12-06T12:01:55.584Z,10.96
2018-12-06T12:02:55.631Z,10.95
2018-12-06T12:03:55.672Z,10.91
2018-12-06T12:04:55.727Z,10.88
2018-12-06T12:05:58.776Z,10.91
2018-12-06T12:06:55.815Z,10.92
2018-12-06T12:07:55.893Z,10.98
2018-12-06T12:08:55.907Z,10.91
2018-12-06T12:09:55.957Z,10.89
2018-12-06T12:10:56.003Z,10.95
2018-12-06T12:11:56.056Z,10.98
2018-12-06T12:12:56.117Z,10.96
2018-12-06T12:13:56.147Z,10.99
2018-12-06T12:14:56.207Z,10.95
2018-12-06T12:15:56.233Z,11.07
2018-12-06T12:16:56.290Z,11.06
2018-12-06T12:17:56.358Z,11.03
2018-12-06T12:18:56.389Z,11.07
2018-12-06T12:19:56.448Z,11.07
2018-12-06T12:20:56.485Z,11.16
2018-12-06T12:21:56.521Z,11.07
2018-12-06T12:22:56.616Z,11.06
2018-12-06T12:23:56.609Z,11.09
2018-12-06T12:24:56.656Z,11.09
2018-12-06T12:25:56.718Z,11.09
2018-12-06T12:26:56.753Z,11.09
2018-12-06T12:27:56.823Z,11.06
2018-12-06T12:28:56.839Z,11.06
2018-12-06T12:29:56.893Z,11.13
2018-12-06T12:30:56.935Z,11.03
2018-12-06T12:31:56.981Z,10.95
2018-12-06T12:32:57.052Z,10.89
2018-12-06T12:33:57.075Z,11.03
2018-12-06T12:34:57.134Z,11.03
2018-12-06T12:35:57.168Z,11.02
2018-12-06T12:36:57.217Z,11.09
2018-12-06T12:37:57.306Z,11.07
2018-12-06T12:38:57.311Z,11.10
2018-12-06T12:39:57.358Z,11.09
2018-12-06T12:40:57.416Z,11.21
2018-12-06T12:41:57.455Z,11.11
2018-12-06T12:42:57.521Z,11.10
2018-12-06T12:43:57.558Z,11.10
2018-12-06T12:44:57.590Z,11.10
2018-12-06T12:45:57.639Z,11.17
2018-12-06T12:46:57.683Z,11.10
2018-12-06T12:47:57.750Z,11.10
2018-12-06T12:48:57.794Z,11.09
2018-12-06T12:49:57.834Z,11.10
2018-12-06T12:50:57.869Z,11.10
2018-12-06T12:51:57.916Z,11.10
2018-12-06T12:52:57.966Z,11.19
2018-12-06T12:53:58.037Z,11.16
2018-12-06T12:54:58.057Z,11.25
2018-12-06T12:55:58.101Z,11.17
2018-12-06T12:56:58.163Z,11.19
2018-12-06T12:57:58.211Z,11.17
2018-12-06T12:58:58.261Z,11.27
2018-12-06T12:59:58.298Z,11.29
2018-12-06T13:00:58.365Z,11.36
2018-12-06T13:01:58.382Z,11.38
2018-12-06T13:02:58.442Z,11.35
2018-12-06T13:03:58.491Z,11.36
2018-12-06T13:04:58.541Z,11.34
2018-12-06T13:05:58.612Z,11.43
2018-12-06T13:06:58.654Z,11.44
2018-12-06T13:07:58.663Z,11.52
2018-12-06T13:08:58.752Z,11.52
2018-12-06T13:09:58.771Z,11.53
2018-12-06T13:10:58.831Z,11.49
2018-12-06T13:11:58.881Z,11.52